Time;durP1;ratioP1;P1;durP2;ratioP2;P2;SDS_P1;SDS_P2;PMS_P1;PMS_P2;Temp;Humidity;BMP_temperature;BMP_pressure;BME280_temperature;BME280_humidity;BME280_pressure;Samples;Min_cycle;Max_cycle;Signal;HPM_P1;HPM_P2
2023/09/17 00:01:13;;;;;;;8.68;4.20;;;20.50;99.90;;;;;;5109691;28;20039;-88
2023/09/17 00:03:40;;;;;;;6.32;4.60;;;20.60;99.90;;;;;;5109841;28;20032;-87
2023/09/17 00:06:08;;;;;;;6.93;4.25;;;20.60;99.90;;;;;;5106807;28;20036;-87
2023/09/17 00:08:34;;;;;;;;;;;20.60;99.90;;;;;;5104916;28;20024;-87
2023/09/17 00:11:00;;;;;;;5.85;4.10;;;20.50;99.90;;;;;;5105665;28;20395;-87
2023/09/17 00:13:45;;;;;;;11.73;4.75;;;20.50;99.90;;;;;;5107119;28;20064;-88
2023/09/17 00:16:11;;;;;;;5.72;4.22;;;20.50;99.90;;;;;;5102354;28;20024;-89
2023/09/17 00:18:58;;;;;;;6.65;4.53;;;20.50;99.90;;;;;;5105021;28;20023;-87
2023/09/17 00:21:23;;;;;;;6.22;4.85;;;20.50;99.90;;;;;;5108206;28;20054;-88
2023/09/17 00:23:49;;;;;;;7.05;4.47;;;20.50;99.90;;;;;;5103950;28;20104;-88
2023/09/17 00:26:15;;;;;;;5.90;4.35;;;20.60;99.90;;;;;;5102059;28;20046;-88
2023/09/17 00:28:49;;;;;;;7.60;4.47;;;20.50;99.90;;;;;;5105427;28;20020;-88
2023/09/17 00:31:19;;;;;;;8.13;4.15;;;20.50;99.90;;;;;;5106468;28;20054;-88
2023/09/17 00:33:45;;;;;;;6.97;4.30;;;20.60;99.90;;;;;;5110369;28;20009;-88
2023/09/17 00:36:14;;;;;;;6.82;4.20;;;20.60;99.90;;;;;;5111568;28;20035;-87
2023/09/17 00:38:49;;;;;;;6.43;4.53;;;20.60;99.90;;;;;;5106465;28;20025;-88
2023/09/17 00:41:17;;;;;;;6.30;4.20;;;20.60;99.90;;;;;;5106532;28;20087;-88
2023/09/17 00:43:43;;;;;;;6.20;3.97;;;20.70;99.90;;;;;;5102914;28;20268;-88
2023/09/17 00:46:14;;;;;;;4.97;4.18;;;20.70;99.90;;;;;;5105434;28;20040;-87
2023/09/17 00:48:41;;;;;;;5.13;3.97;;;20.80;99.90;;;;;;5104613;28;20039;-89
2023/09/17 00:51:07;;;;;;;5.97;4.10;;;20.80;99.90;;;;;;5107006;28;20035;-87
2023/09/17 00:53:32;;;;;;;6.10;3.58;;;20.80;99.90;;;;;;5105403;28;20008;-88
2023/09/17 00:55:59;;;;;;;5.95;3.90;;;20.80;99.90;;;;;;5107034;28;20158;-87
2023/09/17 00:58:29;;;;;;;3.65;3.20;;;20.80;99.90;;;;;;5103831;28;20020;-88
2023/09/17 01:00:58;;;;;;;10.90;3.83;;;20.90;99.90;;;;;;5101720;28;20403;-87
2023/09/17 01:03:27;;;;;;;5.35;3.70;;;20.90;99.90;;;;;;5105676;28;20049;-88
2023/09/17 01:05:57;;;;;;;4.97;3.85;;;20.90;99.90;;;;;;5104952;28;20052;-89
2023/09/17 01:08:24;;;;;;;4.07;3.65;;;20.90;99.90;;;;;;5107372;28;20439;-88
2023/09/17 01:10:55;;;;;;;;;;;20.90;99.90;;;;;;5107569;28;20028;-88
2023/09/17 01:13:23;;;;;;;5.25;3.95;;;20.90;99.90;;;;;;5104899;28;19916;-88
2023/09/17 01:15:50;;;;;;;5.38;3.80;;;20.90;99.90;;;;;;5097652;28;20044;-89
2023/09/17 01:18:39;;;;;;;7.65;3.72;;;20.80;99.90;;;;;;5084358;28;20032;-87
2023/09/17 01:21:17;;;;;;;8.57;3.90;;;20.80;99.90;;;;;;5101922;28;20054;-88
2023/09/17 01:23:51;;;;;;;5.00;3.50;;;20.90;99.90;;;;;;5105374;28;20034;-88
2023/09/17 01:26:25;;;;;;;7.18;3.80;;;20.90;99.90;;;;;;5105181;28;20114;-87
2023/09/17 01:28:53;;;;;;;6.88;4.20;;;20.80;99.90;;;;;;5086486;28;20061;-87
2023/09/17 01:31:21;;;;;;;5.40;3.58;;;20.80;99.90;;;;;;5104854;28;20056;-87
2023/09/17 01:33:49;;;;;;;4.95;3.60;;;20.90;99.90;;;;;;5100476;28;20028;-88
2023/09/17 01:36:39;;;;;;;10.32;4.10;;;20.90;99.90;;;;;;5084526;28;20541;-88
2023/09/17 01:39:26;;;;;;;7.60;3.65;;;20.90;99.90;;;;;;5088056;28;20126;-89
2023/09/17 01:41:52;;;;;;;6.27;3.70;;;20.90;99.90;;;;;;5087216;28;20046;-87
2023/09/17 01:44:24;;;;;;;5.05;3.55;;;20.90;99.90;;;;;;5090183;28;20064;-87
2023/09/17 01:46:54;;;;;;;7.95;3.75;;;20.90;99.90;;;;;;5105828;28;20036;-87
2023/09/17 01:49:21;;;;;;;4.85;3.72;;;20.90;99.90;;;;;;5105723;28;20051;-88
2023/09/17 01:51:56;;;;;;;;;;;20.90;99.90;;;;;;5107509;28;20040;-89
2023/09/17 01:54:27;;;;;;;4.30;3.40;;;20.90;99.90;;;;;;5110148;28;19911;-88
2023/09/17 01:56:56;;;;;;;3.55;2.92;;;20.80;99.90;;;;;;5110020;28;20008;-88
2023/09/17 01:59:22;;;;;;;5.57;3.63;;;20.80;99.90;;;;;;5104341;28;20020;-88
2023/09/17 02:02:08;;;;;;;5.82;3.28;;;20.80;99.90;;;;;;5107520;28;20012;-88
2023/09/17 02:04:35;;;;;;;3.85;3.22;;;20.80;99.90;;;;;;5109318;28;20050;-88
2023/09/17 02:07:00;;;;;;;4.93;3.17;;;20.80;99.90;;;;;;5112023;28;20054;-88
2023/09/17 02:09:28;;;;;;;4.97;3.38;;;20.80;99.90;;;;;;5110604;28;20032;-87
2023/09/17 02:11:53;;;;;;;4.80;3.40;;;20.80;99.90;;;;;;5110080;28;20036;-88
2023/09/17 02:14:19;;;;;;;8.75;3.17;;;20.90;99.90;;;;;;5110109;28;20446;-87
2023/09/17 02:16:49;;;;;;;4.65;3.45;;;20.80;99.90;;;;;;5112308;28;20016;-87
2023/09/17 02:19:33;;;;;;;3.90;3.20;;;20.80;99.90;;;;;;5111077;28;20028;-87
2023/09/17 02:21:59;;;;;;;4.10;3.40;;;20.80;99.90;;;;;;5108648;28;20036;-91
2023/09/17 02:24:59;;;;;;;5.60;3.65;;;20.80;99.90;;;;;;5095657;28;20020;-88
2023/09/17 02:27:30;;;;;;;3.45;3.05;;;20.80;99.90;;;;;;5109549;28;20044;-88
2023/09/17 02:29:56;;;;;;;4.03;3.17;;;20.80;99.90;;;;;;5108472;28;20044;-88
2023/09/17 02:32:21;;;;;;;6.15;3.22;;;20.80;99.90;;;;;;5107981;28;20028;-87
2023/09/17 02:35:12;;;;;;;6.07;3.10;;;20.80;99.90;;;;;;5108799;28;20016;-88
2023/09/17 02:37:46;;;;;;;5.25;3.20;;;20.80;99.90;;;;;;5111066;28;20056;-87
2023/09/17 02:40:19;;;;;;;4.43;3.60;;;20.80;99.90;;;;;;5111735;28;20036;-87
2023/09/17 02:42:57;;;;;;;4.55;3.10;;;20.80;99.90;;;;;;5108329;28;20032;-88
2023/09/17 02:45:25;;;;;;;5.40;3.30;;;20.80;99.90;;;;;;5111452;28;20051;-88
2023/09/17 02:47:55;;;;;;;5.53;2.85;;;20.80;99.90;;;;;;5110253;28;20044;-87
2023/09/17 02:50:20;;;;;;;7.10;2.90;;;20.80;99.90;;;;;;5110874;28;20046;-88
2023/09/17 02:53:08;;;;;;;3.83;3.03;;;20.80;99.90;;;;;;5112865;28;20054;-88
2023/09/17 02:55:34;;;;;;;4.95;3.10;;;20.80;99.90;;;;;;5109712;28;20075;-89
2023/09/17 02:58:05;;;;;;;3.33;2.90;;;20.80;99.90;;;;;;5111249;28;20028;-88
2023/09/17 03:00:38;;;;;;;3.83;3.03;;;20.80;99.90;;;;;;5112050;28;20040;-88
2023/09/17 03:03:04;;;;;;;5.50;2.65;;;20.80;99.90;;;;;;5112489;28;20095;-87
2023/09/17 03:05:29;;;;;;;4.93;2.97;;;20.80;99.90;;;;;;5105389;28;20047;-87
2023/09/17 03:07:58;;;;;;;5.32;3.05;;;20.70;99.90;;;;;;5103951;28;20174;-89
2023/09/17 03:10:24;;;;;;;7.13;3.00;;;20.80;99.90;;;;;;5104446;28;20047;-87
2023/09/17 03:12:57;;;;;;;5.47;2.72;;;20.80;99.90;;;;;;5107249;28;20024;-88
2023/09/17 03:15:26;;;;;;;5.00;2.92;;;20.80;99.90;;;;;;5095761;28;20046;-88
2023/09/17 03:17:52;;;;;;;4.60;2.67;;;20.80;99.90;;;;;;5112192;28;20093;-88
2023/09/17 03:20:18;;;;;;;3.95;2.90;;;20.80;99.90;;;;;;5113154;28;20099;-87
2023/09/17 03:23:04;;;;;;;3.80;2.75;;;20.80;99.90;;;;;;5110737;28;20027;-88
2023/09/17 03:25:31;;;;;;;5.32;3.17;;;20.90;99.90;;;;;;5112137;28;20095;-88
2023/09/17 03:27:59;;;;;;;3.38;2.78;;;20.80;99.90;;;;;;5107785;28;20012;-88
2023/09/17 03:30:45;;;;;;;4.75;2.63;;;20.80;99.90;;;;;;5106559;28;20028;-88
2023/09/17 03:33:13;;;;;;;3.60;2.83;;;20.80;99.90;;;;;;5104912;28;20039;-88
2023/09/17 03:35:40;;;;;;;5.10;2.60;;;20.90;99.90;;;;;;5108732;28;20035;-91
2023/09/17 03:38:06;;;;;;;2.88;2.53;;;20.80;99.90;;;;;;5109749;28;20028;-89
2023/09/17 03:40:32;;;;;;;3.60;2.60;;;20.80;99.90;;;;;;5109062;28;20023;-89
2023/09/17 03:42:57;;;;;;;3.80;3.05;;;20.90;99.90;;;;;;5110812;28;20024;-88
2023/09/17 03:45:23;;;;;;;5.10;2.53;;;20.80;99.90;;;;;;5109997;28;20032;-90
2023/09/17 03:47:50;;;;;;;4.25;2.80;;;20.80;99.90;;;;;;5103824;28;20055;-92
2023/09/17 03:50:19;;;;;;;5.93;2.58;;;20.80;99.90;;;;;;5109100;28;20020;-88
2023/09/17 03:52:53;;;;;;;4.30;2.60;;;20.90;99.90;;;;;;5108401;28;20941;-88
2023/09/17 03:55:31;;;;;;;2.60;2.40;;;20.90;99.90;;;;;;5106169;28;20031;-87
2023/09/17 03:57:57;;;;;;;3.40;2.67;;;20.80;99.90;;;;;;5105801;28;20506;-88
2023/09/17 04:00:23;;;;;;;3.40;2.80;;;20.80;99.90;;;;;;5105326;28;20099;-88
2023/09/17 04:02:49;;;;;;;6.53;3.17;;;20.80;99.90;;;;;;5098967;28;20026;-87
2023/09/17 04:05:16;;;;;;;4.05;2.80;;;20.80;99.90;;;;;;5101030;28;20016;-88
2023/09/17 04:07:45;;;;;;;4.35;2.92;;;20.90;99.90;;;;;;5103041;28;20103;-87
2023/09/17 04:10:12;;;;;;;4.72;2.83;;;20.80;99.90;;;;;;5103080;28;20059;-88
2023/09/17 04:12:39;;;;;;;3.33;2.90;;;20.80;99.90;;;;;;5101857;28;20032;-88
2023/09/17 04:15:19;;;;;;;7.05;2.92;;;20.80;99.90;;;;;;5103492;28;20100;-88
2023/09/17 04:17:54;;;;;;;4.20;3.03;;;20.80;99.90;;;;;;5108234;28;20028;-87
2023/09/17 04:20:20;;;;;;;4.35;2.90;;;20.80;99.90;;;;;;5104621;28;20727;-89
2023/09/17 04:22:51;;;;;;;3.83;3.00;;;20.90;99.90;;;;;;5107655;28;20016;-88
2023/09/17 04:25:19;;;;;;;4.07;3.03;;;20.90;99.90;;;;;;5108187;28;20035;-89
2023/09/17 04:27:46;;;;;;;3.13;2.60;;;20.90;99.90;;;;;;5106389;28;20062;-89
2023/09/17 04:30:15;;;;;;;5.18;2.95;;;20.80;99.90;;;;;;5109012;28;20092;-89
2023/09/17 04:32:44;;;;;;;3.38;3.03;;;20.80;99.90;;;;;;5107501;28;20095;-88
2023/09/17 04:35:12;;;;;;;7.97;3.00;;;20.80;99.90;;;;;;5103552;28;20028;-91
2023/09/17 04:37:39;;;;;;;;;;;20.80;99.90;;;;;;5107782;28;20032;-91
2023/09/17 04:40:11;;;;;;;4.07;2.88;;;20.80;99.90;;;;;;5105321;28;19911;-89
2023/09/17 04:42:46;;;;;;;4.32;3.10;;;20.70;99.90;;;;;;5108799;28;20024;-88
2023/09/17 04:45:18;;;;;;;7.20;3.17;;;20.70;99.90;;;;;;5090116;28;20036;-88
2023/09/17 04:47:48;;;;;;;4.72;3.20;;;20.70;99.90;;;;;;5090673;28;20519;-88
2023/09/17 04:50:16;;;;;;;4.82;2.97;;;20.70;99.90;;;;;;5095698;28;20031;-93
2023/09/17 04:52:43;;;;;;;3.60;2.85;;;20.70;99.90;;;;;;5106901;28;20020;-91
2023/09/17 04:55:08;;;;;;;3.25;2.88;;;20.80;99.90;;;;;;5101784;28;20113;-94
2023/09/17 04:57:35;;;;;;;3.15;2.83;;;20.80;99.90;;;;;;5094329;28;20034;-92
2023/09/17 05:00:10;;;;;;;5.88;3.45;;;20.80;99.90;;;;;;5088204;28;20016;-91
2023/09/17 05:02:38;;;;;;;5.07;3.20;;;20.80;99.90;;;;;;5089441;28;20383;-91
2023/09/17 05:05:07;;;;;;;4.40;2.90;;;20.80;99.90;;;;;;5089846;28;20056;-92
2023/09/17 05:07:32;;;;;;;4.25;2.70;;;20.80;99.90;;;;;;5089438;28;20040;-90
2023/09/17 05:09:58;;;;;;;9.02;3.33;;;20.80;99.90;;;;;;5091215;28;20035;-87
2023/09/17 05:12:24;;;;;;;6.38;3.15;;;20.80;99.90;;;;;;5091744;28;20039;-93
2023/09/17 05:14:49;;;;;;;6.05;3.25;;;20.90;99.90;;;;;;5084333;28;20365;-90
2023/09/17 05:17:15;;;;;;;5.70;3.10;;;20.80;99.90;;;;;;5089586;28;20220;-90
2023/09/17 05:19:41;;;;;;;4.80;3.50;;;20.80;99.90;;;;;;5089009;28;20020;-87
2023/09/17 05:22:06;;;;;;;4.70;3.38;;;20.80;99.90;;;;;;5090078;28;20035;-89
2023/09/17 05:24:32;;;;;;;7.63;3.10;;;20.80;99.90;;;;;;5087264;28;20029;-92
2023/09/17 05:26:57;;;;;;;4.93;3.17;;;20.80;99.90;;;;;;5089856;28;20539;-89
2023/09/17 05:29:23;;;;;;;5.30;3.45;;;20.80;99.90;;;;;;5090654;28;20021;-92
2023/09/17 05:31:49;;;;;;;6.60;3.47;;;20.80;99.90;;;;;;5089654;28;20032;-94
2023/09/17 05:34:14;;;;;;;6.65;3.28;;;20.80;99.90;;;;;;5088838;28;20017;-93
2023/09/17 05:36:40;;;;;;;8.10;3.72;;;20.70;99.90;;;;;;5088880;28;20056;-90
2023/09/17 05:39:06;;;;;;;10.23;3.72;;;20.70;99.90;;;;;;5088682;28;20472;-88
2023/09/17 05:41:32;;;;;;;5.05;3.30;;;20.70;99.90;;;;;;5087751;28;20024;-90
2023/09/17 05:43:57;;;;;;;6.13;3.72;;;20.70;99.90;;;;;;5088611;28;20031;-89
2023/09/17 05:46:23;;;;;;;6.90;3.80;;;20.70;99.90;;;;;;5089661;28;20123;-94
2023/09/17 05:48:49;;;;;;;7.78;3.70;;;20.70;99.90;;;;;;5090183;28;20472;-88
2023/09/17 05:51:15;;;;;;;5.47;3.58;;;20.70;99.90;;;;;;5091156;28;20402;-89
2023/09/17 05:53:40;;;;;;;5.43;3.58;;;20.70;99.90;;;;;;5087625;28;20040;-89
2023/09/17 05:56:07;;;;;;;4.85;3.33;;;20.70;99.90;;;;;;5089349;28;20032;-90
2023/09/17 05:58:33;;;;;;;8.90;3.92;;;20.70;99.90;;;;;;5087599;28;20019;-92
2023/09/17 06:00:59;;;;;;;6.70;3.35;;;20.70;99.90;;;;;;5087584;28;20028;-89
2023/09/17 06:03:24;;;;;;;6.00;3.40;;;20.60;99.90;;;;;;5090535;28;20031;-87
2023/09/17 06:05:50;;;;;;;4.53;3.08;;;20.60;99.90;;;;;;5088843;28;20122;-86
2023/09/17 06:08:16;;;;;;;4.90;3.30;;;20.60;99.90;;;;;;5072791;28;20041;-87
2023/09/17 06:10:41;;;;;;;8.63;3.25;;;20.60;99.90;;;;;;5068264;28;20028;-86
2023/09/17 06:13:07;;;;;;;4.78;3.30;;;20.60;99.90;;;;;;5080728;28;20055;-88
2023/09/17 06:15:33;;;;;;;9.25;3.83;;;20.60;99.90;;;;;;5081456;28;20032;-90
2023/09/17 06:17:58;;;;;;;10.55;3.42;;;20.60;99.90;;;;;;5095103;28;20111;-93
2023/09/17 06:20:24;;;;;;;6.90;3.75;;;20.60;99.90;;;;;;5097219;28;20017;-93
2023/09/17 06:22:49;;;;;;;7.40;3.40;;;20.60;99.90;;;;;;5086351;28;20032;-89
2023/09/17 06:25:15;;;;;;;3.85;3.28;;;20.60;99.90;;;;;;5085082;28;20747;-94
2023/09/17 06:27:41;;;;;;;6.35;3.45;;;20.60;99.90;;;;;;5087654;28;20035;-95
2023/09/17 06:30:07;;;;;;;7.07;3.60;;;20.60;99.90;;;;;;5081115;28;20028;-93
2023/09/17 06:32:33;;;;;;;8.00;3.40;;;20.60;99.90;;;;;;5085691;28;20128;-86
2023/09/17 06:34:59;;;;;;;4.80;3.28;;;20.60;99.90;;;;;;5088229;28;20139;-92
2023/09/17 06:37:24;;;;;;;7.60;3.72;;;20.60;99.90;;;;;;5097003;28;20116;-91
2023/09/17 06:39:50;;;;;;;6.97;3.72;;;20.60;99.90;;;;;;5093031;28;20034;-91
2023/09/17 06:42:16;;;;;;;8.65;4.05;;;20.60;99.90;;;;;;5092919;28;20336;-93
2023/09/17 06:44:41;;;;;;;5.38;3.88;;;20.50;99.90;;;;;;5093698;28;20118;-93
2023/09/17 06:47:07;;;;;;;5.60;3.67;;;20.50;99.90;;;;;;5086686;28;20037;-89
2023/09/17 06:49:33;;;;;;;6.10;3.88;;;20.50;99.90;;;;;;5095540;28;20387;-90
2023/09/17 06:51:59;;;;;;;7.78;3.75;;;20.50;99.90;;;;;;5110657;28;20034;-93
2023/09/17 06:54:24;;;;;;;5.95;3.88;;;20.50;99.90;;;;;;5096914;28;20052;-89
2023/09/17 06:56:52;;;;;;;6.53;3.95;;;20.50;99.90;;;;;;5092197;28;20030;-88
2023/09/17 06:59:18;;;;;;;5.40;3.60;;;20.50;99.90;;;;;;5093198;28;20023;-85
2023/09/17 07:01:45;;;;;;;8.45;3.53;;;20.50;99.90;;;;;;5091294;28;20024;-91
2023/09/17 07:04:11;;;;;;;6.10;3.70;;;20.50;99.90;;;;;;5092905;28;20020;-90
2023/09/17 07:06:36;;;;;;;7.07;4.13;;;20.50;99.90;;;;;;5091607;28;20040;-93
2023/09/17 07:09:03;;;;;;;8.52;3.50;;;20.50;99.90;;;;;;5091201;28;20031;-91
2023/09/17 07:11:29;;;;;;;8.10;3.60;;;20.60;99.90;;;;;;5090713;28;20130;-90
2023/09/17 07:13:55;;;;;;;4.25;3.70;;;20.70;99.90;;;;;;5091989;28;20063;-87
2023/09/17 07:16:23;;;;;;;6.35;3.58;;;20.80;99.90;;;;;;5090564;28;20027;-85
2023/09/17 07:18:49;;;;;;;5.95;3.95;;;20.80;99.90;;;;;;5083176;28;20024;-90
2023/09/17 07:21:15;;;;;;;7.32;3.90;;;20.90;99.90;;;;;;5091430;28;20399;-86
2023/09/17 07:23:42;;;;;;;9.80;3.72;;;21.00;99.90;;;;;;5091641;28;20039;-92
2023/09/17 07:26:09;;;;;;;5.95;4.15;;;21.00;99.90;;;;;;5094776;28;20103;-90
2023/09/17 07:28:34;;;;;;;5.18;4.00;;;21.10;99.90;;;;;;5091676;28;20028;-92
2023/09/17 07:31:01;;;;;;;5.50;3.70;;;21.20;99.90;;;;;;5104003;28;20406;-85
2023/09/17 07:33:26;;;;;;;5.65;3.35;;;21.30;99.90;;;;;;5090937;28;20031;-89
2023/09/17 07:35:52;;;;;;;5.88;3.80;;;21.30;99.90;;;;;;5092964;28;20028;-91
2023/09/17 07:38:18;;;;;;;5.10;3.47;;;21.40;99.90;;;;;;5092836;28;20024;-90
2023/09/17 07:40:44;;;;;;;7.75;3.25;;;21.40;99.90;;;;;;5090722;28;20035;-88
2023/09/17 07:43:10;;;;;;;5.45;3.40;;;21.40;99.90;;;;;;5092058;28;20630;-91
2023/09/17 07:45:36;;;;;;;5.50;3.72;;;21.40;99.90;;;;;;5088551;28;20119;-88
2023/09/17 07:48:03;;;;;;;7.95;3.70;;;21.40;99.90;;;;;;5090098;28;20047;-92
2023/09/17 07:50:29;;;;;;;5.25;3.65;;;21.40;99.90;;;;;;5093673;28;20475;-85
2023/09/17 07:52:54;;;;;;;6.72;4.25;;;21.40;99.90;;;;;;5093906;28;20076;-89
2023/09/17 07:55:20;;;;;;;5.13;3.63;;;21.30;99.90;;;;;;5080665;28;20035;-86
2023/09/17 07:57:46;;;;;;;6.80;4.25;;;21.10;99.90;;;;;;5100305;28;20419;-89
2023/09/17 08:00:15;;;;;;;6.35;4.15;;;21.00;99.90;;;;;;5072786;28;20113;-90
2023/09/17 08:02:44;;;;;;;9.40;4.07;;;21.00;99.90;;;;;;5088167;28;20070;-87
2023/09/17 08:05:13;;;;;;;7.07;3.65;;;20.90;99.90;;;;;;5082447;28;20047;-90
2023/09/17 08:07:42;;;;;;;6.85;2.92;;;20.80;99.90;;;;;;5083934;28;20111;-87
2023/09/17 08:10:08;;;;;;;4.70;2.50;;;20.90;99.90;;;;;;5087345;28;20028;-86
2023/09/17 08:12:34;;;;;;;5.05;2.70;;;20.80;99.90;;;;;;5089618;28;20077;-84
2023/09/17 08:15:01;;;;;;;5.60;3.03;;;20.80;99.90;;;;;;5089367;28;20016;-85
2023/09/17 08:17:27;;;;;;;4.80;2.80;;;20.80;99.90;;;;;;5088777;28;20028;-85
2023/09/17 08:19:54;;;;;;;6.93;2.85;;;20.80;99.90;;;;;;5089158;28;20107;-84
2023/09/17 08:22:21;;;;;;;7.65;3.33;;;20.80;99.90;;;;;;5088796;28;20524;-85
2023/09/17 08:24:47;;;;;;;4.93;3.10;;;20.80;99.90;;;;;;5089160;28;20073;-85
2023/09/17 08:27:15;;;;;;;7.15;2.85;;;20.90;99.90;;;;;;5089304;28;20414;-84
2023/09/17 08:29:41;;;;;;;4.05;2.60;;;20.90;99.90;;;;;;5087574;28;20020;-84
2023/09/17 08:32:07;;;;;;;4.68;2.50;;;21.00;99.90;;;;;;5089102;28;20027;-89
2023/09/17 08:34:32;;;;;;;6.05;2.70;;;21.10;99.90;;;;;;5087897;28;20052;-88
2023/09/17 08:36:58;;;;;;;3.72;2.60;;;21.30;99.90;;;;;;5089153;28;20063;-87
2023/09/17 08:39:25;;;;;;;4.95;2.70;;;21.40;99.90;;;;;;5089950;28;20027;-89
2023/09/17 08:41:52;;;;;;;4.93;2.45;;;21.50;99.90;;;;;;5094109;28;20080;-85
2023/09/17 08:44:18;;;;;;;5.93;2.72;;;21.70;99.90;;;;;;5087667;28;20107;-87
2023/09/17 08:46:45;;;;;;;7.97;2.80;;;21.80;99.90;;;;;;5088431;28;20068;-88
2023/09/17 08:49:11;;;;;;;4.63;2.70;;;21.90;99.90;;;;;;5095746;28;20448;-85
2023/09/17 08:51:40;;;;;;;6.43;2.50;;;22.00;99.90;;;;;;5091577;28;20051;-85
2023/09/17 08:54:13;;;;;;;6.15;2.30;;;22.10;99.90;;;;;;5089378;28;20137;-86
2023/09/17 08:56:42;;;;;;;5.55;2.28;;;22.20;99.90;;;;;;5090552;28;20020;-89
2023/09/17 08:59:11;;;;;;;4.00;2.30;;;22.30;99.90;;;;;;5092520;28;20483;-87
2023/09/17 09:01:39;;;;;;;5.80;2.70;;;22.40;99.90;;;;;;5088845;28;20495;-88
2023/09/17 09:04:07;;;;;;;2.60;2.40;;;22.50;99.90;;;;;;5087975;28;20087;-86
2023/09/17 09:06:35;;;;;;;6.20;2.30;;;22.60;99.90;;;;;;5089341;28;20032;-86
2023/09/17 09:09:01;;;;;;;3.78;2.25;;;22.60;99.90;;;;;;5086917;28;20123;-86
2023/09/17 09:11:28;;;;;;;3.25;2.30;;;22.70;99.90;;;;;;5088112;28;20020;-86
2023/09/17 09:13:55;;;;;;;4.05;2.17;;;22.70;99.90;;;;;;5080543;28;20024;-87
2023/09/17 09:16:21;;;;;;;5.40;2.00;;;22.80;99.90;;;;;;5089373;28;20023;-86
2023/09/17 09:18:47;;;;;;;5.20;2.10;;;22.80;99.90;;;;;;5085307;28;20035;-86
2023/09/17 09:21:14;;;;;;;5.68;1.67;;;22.80;99.90;;;;;;5087317;28;20039;-89
2023/09/17 09:23:40;;;;;;;3.83;2.03;;;22.80;99.90;;;;;;5089088;28;20031;-88
2023/09/17 09:26:06;;;;;;;5.05;1.85;;;22.80;99.90;;;;;;5082506;28;20456;-87
2023/09/17 09:28:32;;;;;;;2.10;1.90;;;22.90;99.90;;;;;;5088375;28;20020;-87
2023/09/17 09:30:58;;;;;;;6.03;2.25;;;22.80;99.90;;;;;;5088929;28;20025;-86
2023/09/17 09:33:24;;;;;;;7.55;2.03;;;22.80;99.90;;;;;;5090349;28;20027;-86
2023/09/17 09:35:50;;;;;;;4.60;2.40;;;22.80;99.90;;;;;;5085398;28;20028;-86
2023/09/17 09:38:17;;;;;;;4.88;2.00;;;22.70;99.90;;;;;;5085800;28;20798;-89
2023/09/17 09:40:44;;;;;;;5.60;2.10;;;22.80;99.90;;;;;;5088486;28;20056;-88
2023/09/17 09:43:30;;;;;;;3.78;2.10;;;22.70;99.90;;;;;;5088610;28;20081;-88
2023/09/17 09:46:04;;;;;;;5.38;2.05;;;22.70;99.90;;;;;;5088769;28;20032;-84
2023/09/17 09:48:30;;;;;;;4.00;1.77;;;22.60;99.90;;;;;;5085976;28;20111;-85
2023/09/17 09:50:56;;;;;;;2.83;2.13;;;22.50;99.90;;;;;;5092477;28;20020;-86
2023/09/17 09:53:22;;;;;;;4.20;2.08;;;22.60;99.90;;;;;;5087740;28;20027;-91
2023/09/17 09:55:48;;;;;;;3.75;2.08;;;22.60;99.90;;;;;;5088768;28;20031;-89
2023/09/17 09:58:14;;;;;;;2.75;1.95;;;22.70;99.90;;;;;;5092293;28;20495;-85
2023/09/17 10:00:44;;;;;;;4.72;2.30;;;22.90;99.90;;;;;;5087585;28;20488;-85
2023/09/17 10:03:12;;;;;;;4.72;1.80;;;22.90;99.90;;;;;;5088082;28;20056;-88
2023/09/17 10:05:39;;;;;;;2.17;1.97;;;23.10;99.90;;;;;;5088700;28;20031;-90
2023/09/17 10:08:08;;;;;;;3.55;1.90;;;23.20;99.90;;;;;;5084710;28;20291;-90
2023/09/17 10:10:39;;;;;;;2.47;1.88;;;23.20;99.90;;;;;;5088412;28;20032;-85
2023/09/17 10:13:07;;;;;;;3.55;2.30;;;23.20;99.90;;;;;;5098304;28;20081;-91
2023/09/17 10:15:34;;;;;;;3.67;2.58;;;23.20;99.90;;;;;;5092159;28;20024;-87
2023/09/17 10:18:01;;;;;;;4.35;2.30;;;23.20;99.90;;;;;;5093369;28;20020;-84
2023/09/17 10:20:28;;;;;;;3.67;2.22;;;23.20;99.90;;;;;;5092016;28;20028;-85
2023/09/17 10:22:55;;;;;;;3.25;2.28;;;23.10;99.90;;;;;;5089506;28;20069;-83
2023/09/17 10:25:22;;;;;;;4.38;2.53;;;23.10;99.90;;;;;;5091917;28;20408;-87
2023/09/17 10:27:50;;;;;;;5.10;2.33;;;23.10;99.90;;;;;;5084913;28;20030;-86
2023/09/17 10:30:17;;;;;;;5.25;1.92;;;23.10;99.90;;;;;;5089149;28;20410;-89
2023/09/17 10:32:44;;;;;;;3.92;1.90;;;23.10;99.90;;;;;;5087386;28;20055;-85
2023/09/17 10:35:10;;;;;;;3.33;1.87;;;23.10;99.90;;;;;;5089312;28;20395;-84
2023/09/17 10:37:38;;;;;;;5.90;2.15;;;23.00;99.90;;;;;;5086520;28;20376;-86
2023/09/17 10:40:10;;;;;;;2.97;1.90;;;23.00;99.90;;;;;;5087780;28;20028;-87
2023/09/17 10:42:38;;;;;;;6.22;1.85;;;23.00;99.90;;;;;;5087390;28;20039;-90
2023/09/17 10:45:07;;;;;;;5.63;2.05;;;23.00;99.90;;;;;;5088806;28;20028;-89
2023/09/17 10:47:36;;;;;;;3.78;2.30;;;23.00;99.90;;;;;;5089753;28;20039;-90
2023/09/17 10:50:03;;;;;;;4.85;1.73;;;23.00;99.90;;;;;;5099677;28;20028;-93
2023/09/17 10:52:30;;;;;;;3.10;2.17;;;23.00;99.90;;;;;;5086668;28;20028;-87
2023/09/17 10:54:56;;;;;;;3.83;2.50;;;22.90;99.90;;;;;;5081072;28;20110;-87
2023/09/17 10:57:44;;;;;;;4.70;2.15;;;23.10;99.90;;;;;;5088669;28;20103;-87
2023/09/17 11:00:17;;;;;;;4.22;2.10;;;23.20;99.90;;;;;;5093510;28;20126;-89
2023/09/17 11:02:48;;;;;;;3.60;2.10;;;23.30;99.90;;;;;;5084723;28;20620;-87
2023/09/17 11:05:19;;;;;;;6.80;2.30;;;23.30;99.90;;;;;;5087859;28;20027;-89
2023/09/17 11:07:45;;;;;;;2.42;1.98;;;23.40;99.90;;;;;;5085460;28;20469;-93
2023/09/17 11:10:12;;;;;;;4.50;2.00;;;23.40;99.90;;;;;;5088188;28;20562;-91
2023/09/17 11:12:38;;;;;;;4.60;2.03;;;23.50;99.90;;;;;;5086461;28;20055;-88
2023/09/17 11:15:06;;;;;;;5.78;2.58;;;23.50;99.90;;;;;;5087882;28;20361;-88
2023/09/17 11:17:33;;;;;;;4.55;2.25;;;23.40;99.90;;;;;;5080830;28;20183;-88
2023/09/17 11:19:59;;;;;;;4.35;2.47;;;23.40;99.90;;;;;;5087014;28;20484;-89
2023/09/17 11:22:27;;;;;;;5.28;2.60;;;23.40;99.90;;;;;;5090141;28;20023;-87
2023/09/17 11:24:53;;;;;;;4.20;2.50;;;23.60;99.90;;;;;;5092366;28;20380;-90
2023/09/17 11:27:47;;;;;;;4.32;2.58;;;23.60;99.90;;;;;;5091339;28;20032;-90
2023/09/17 11:30:17;;;;;;;6.55;2.25;;;23.60;99.90;;;;;;5090046;28;20027;-88
2023/09/17 11:32:53;;;;;;;5.10;2.35;;;23.60;99.90;;;;;;5091089;28;20031;-92
2023/09/17 11:35:21;;;;;;;3.78;2.53;;;23.70;99.90;;;;;;5091254;28;20442;-90
2023/09/17 11:37:47;;;;;;;;;;;23.60;99.90;;;;;;5091118;28;20039;-87
2023/09/17 11:40:12;;;;;;;5.50;2.47;;;23.70;99.90;;;;;;5090766;28;19915;-92
2023/09/17 11:42:40;;;;;;;4.18;2.33;;;23.70;99.90;;;;;;5091150;28;20097;-86
2023/09/17 11:45:08;;;;;;;4.43;2.80;;;23.70;99.90;;;;;;5091821;28;20028;-93
2023/09/17 11:47:34;;;;;;;3.75;2.50;;;23.60;99.90;;;;;;5088759;28;20024;-91
2023/09/17 11:50:00;;;;;;;3.38;2.45;;;23.80;99.90;;;;;;5100277;28;20030;-87
2023/09/17 11:52:27;;;;;;;4.53;2.50;;;23.80;99.90;;;;;;5089621;28;20051;-82
2023/09/17 11:54:58;;;;;;;6.60;2.50;;;23.80;99.90;;;;;;5093678;28;20020;-91
2023/09/17 11:57:25;;;;;;;6.93;2.70;;;23.90;99.90;;;;;;5101516;28;20019;-86
2023/09/17 11:59:50;;;;;;;4.13;2.60;;;24.00;99.90;;;;;;5098500;27;20096;-85
2023/09/17 12:02:17;;;;;;;5.82;2.70;;;24.00;99.90;;;;;;5090732;28;20062;-87
2023/09/17 12:04:44;;;;;;;6.22;2.50;;;24.00;99.90;;;;;;5090973;28;20043;-89
2023/09/17 12:07:12;;;;;;;5.32;2.70;;;24.20;99.90;;;;;;5091066;28;20036;-90
2023/09/17 12:10:01;;;;;;;4.22;2.63;;;24.20;99.90;;;;;;5086439;28;20028;-89
2023/09/17 12:12:33;;;;;;;5.43;2.50;;;24.20;99.90;;;;;;5091105;28;20032;-83
2023/09/17 12:14:59;;;;;;;5.40;2.90;;;24.20;99.90;;;;;;5090429;28;20020;-88
2023/09/17 12:17:24;;;;;;;5.80;3.17;;;24.40;99.90;;;;;;5091310;28;20030;-89
2023/09/17 12:19:59;;;;;;;11.40;3.30;;;24.50;99.90;;;;;;5089972;28;20035;-90
2023/09/17 12:22:25;;;;;;;6.60;3.28;;;24.60;99.90;;;;;;5090282;28;20522;-92
2023/09/17 12:25:05;;;;;;;6.45;3.28;;;24.70;99.90;;;;;;5089235;28;20032;-88
2023/09/17 12:29:57;;;;;;;7.88;3.38;;;24.70;99.90;;;;;;5089641;28;20026;-88
2023/09/17 12:32:27;;;;;;;6.32;3.15;;;24.70;99.90;;;;;;5085894;28;20043;-90
2023/09/17 12:34:54;;;;;;;4.70;3.22;;;24.80;99.90;;;;;;5090937;28;20107;-91
2023/09/17 12:37:21;;;;;;;7.85;3.55;;;24.90;99.90;;;;;;5090272;28;20020;-91
2023/09/17 12:39:49;;;;;;;6.57;3.10;;;24.90;99.90;;;;;;5088852;28;20035;-90
2023/09/17 12:42:15;;;;;;;5.05;3.45;;;24.80;99.90;;;;;;5087266;28;20433;-88
2023/09/17 12:44:40;;;;;;;8.73;3.50;;;24.80;99.90;;;;;;5088283;28;20060;-92
2023/09/17 12:47:07;;;;;;;5.13;3.08;;;24.80;99.90;;;;;;5088564;28;20114;-90
2023/09/17 12:49:33;;;;;;;8.95;3.55;;;24.90;99.90;;;;;;5089749;28;20514;-90
2023/09/17 12:52:00;;;;;;;6.13;3.60;;;24.80;99.90;;;;;;5089952;28;20506;-89
2023/09/17 12:54:26;;;;;;;7.77;3.30;;;24.90;99.90;;;;;;5089147;28;20024;-88
2023/09/17 12:56:52;;;;;;;8.32;3.80;;;24.90;99.90;;;;;;5090656;28;20020;-91